sensor_id;sensor_type;location;lat;lon;timestamp;pressure;altitude;pressure_sealevel;temperature;humidity
31121;BME280;17770;45.966;13.632;2023-11-19T00:00:21;101133.66;;;16.68;55.38
31121;BME280;17770;45.966;13.632;2023-11-19T00:02:47;101132.81;;;16.68;55.33
31121;BME280;17770;45.966;13.632;2023-11-19T00:05:13;101137.22;;;16.66;55.66
31121;BME280;17770;45.966;13.632;2023-11-19T00:07:39;101132.88;;;16.66;55.04
31121;BME280;17770;45.966;13.632;2023-11-19T00:10:14;101122.53;;;16.65;55.24
31121;BME280;17770;45.966;13.632;2023-11-19T00:12:45;101126.00;;;16.65;55.11
31121;BME280;17770;45.966;13.632;2023-11-19T00:15:13;101125.06;;;16.66;55.10
31121;BME280;17770;45.966;13.632;2023-11-19T00:17:40;101134.63;;;16.66;54.96
31121;BME280;17770;45.966;13.632;2023-11-19T00:20:06;101135.63;;;16.63;55.37
31121;BME280;17770;45.966;13.632;2023-11-19T00:22:32;101138.16;;;16.65;55.13
31121;BME280;17770;45.966;13.632;2023-11-19T00:24:58;101132.16;;;16.63;55.58
31121;BME280;17770;45.966;13.632;2023-11-19T00:27:26;101144.34;;;16.62;54.93
31121;BME280;17770;45.966;13.632;2023-11-19T00:29:53;101141.75;;;16.62;55.11
31121;BME280;17770;45.966;13.632;2023-11-19T00:32:19;101140.88;;;16.62;55.49
31121;BME280;17770;45.966;13.632;2023-11-19T00:34:45;101143.56;;;16.60;55.39
31121;BME280;17770;45.966;13.632;2023-11-19T00:37:15;101144.44;;;16.59;55.37
31121;BME280;17770;45.966;13.632;2023-11-19T00:39:42;101144.44;;;16.59;55.10
31121;BME280;17770;45.966;13.632;2023-11-19T00:42:09;101154.94;;;16.58;55.08
31121;BME280;17770;45.966;13.632;2023-11-19T00:44:36;101145.38;;;16.58;55.18
31121;BME280;17770;45.966;13.632;2023-11-19T00:47:02;101136.72;;;16.58;55.29
31121;BME280;17770;45.966;13.632;2023-11-19T00:49:29;101141.91;;;16.58;55.48
31121;BME280;17770;45.966;13.632;2023-11-19T00:51:57;101142.78;;;16.58;55.48
31121;BME280;17770;45.966;13.632;2023-11-19T00:54:24;101140.16;;;16.58;55.31
31121;BME280;17770;45.966;13.632;2023-11-19T00:56:52;101139.38;;;16.56;55.47
31121;BME280;17770;45.966;13.632;2023-11-19T00:59:18;101131.63;;;16.55;55.10
31121;BME280;17770;45.966;13.632;2023-11-19T01:01:44;101129.03;;;16.55;55.48
31121;BME280;17770;45.966;13.632;2023-11-19T01:04:10;101125.56;;;16.54;55.50
31121;BME280;17770;45.966;13.632;2023-11-19T01:06:36;101121.28;;;16.53;55.30
31121;BME280;17770;45.966;13.632;2023-11-19T01:09:01;101109.13;;;16.54;55.04
31121;BME280;17770;45.966;13.632;2023-11-19T01:11:28;101106.59;;;16.52;55.06
31121;BME280;17770;45.966;13.632;2023-11-19T01:13:54;101087.63;;;16.49;55.60
31121;BME280;17770;45.966;13.632;2023-11-19T01:16:20;101082.69;;;16.41;55.85
31121;BME280;17770;45.966;13.632;2023-11-19T01:18:47;101083.97;;;16.11;56.62
31121;BME280;17770;45.966;13.632;2023-11-19T01:21:13;101077.31;;;16.04;56.73
31121;BME280;17770;45.966;13.632;2023-11-19T01:23:41;101079.13;;;16.02;57.02
31121;BME280;17770;45.966;13.632;2023-11-19T01:26:09;101075.75;;;16.00;56.66
31121;BME280;17770;45.966;13.632;2023-11-19T01:28:36;101091.34;;;16.00;57.17
31121;BME280;17770;45.966;13.632;2023-11-19T01:31:03;101086.00;;;16.25;56.46
31121;BME280;17770;45.966;13.632;2023-11-19T01:33:30;101078.88;;;16.08;56.55
31121;BME280;17770;45.966;13.632;2023-11-19T01:35:56;101090.41;;;16.03;56.38
31121;BME280;17770;45.966;13.632;2023-11-19T01:38:24;101087.44;;;16.32;55.45
31121;BME280;17770;45.966;13.632;2023-11-19T01:40:55;101096.69;;;16.39;55.46
31121;BME280;17770;45.966;13.632;2023-11-19T01:43:31;101084.47;;;16.41;55.30
31121;BME280;17770;45.966;13.632;2023-11-19T01:45:58;101080.03;;;16.43;55.65
31121;BME280;17770;45.966;13.632;2023-11-19T01:48:24;101075.69;;;16.43;55.55
31121;BME280;17770;45.966;13.632;2023-11-19T01:50:50;101086.09;;;16.43;55.66
31121;BME280;17770;45.966;13.632;2023-11-19T01:53:18;101081.81;;;16.42;55.68
31121;BME280;17770;45.966;13.632;2023-11-19T01:55:46;101095.06;;;16.36;55.52
31121;BME280;17770;45.966;13.632;2023-11-19T01:58:13;101095.72;;;16.41;55.61
31121;BME280;17770;45.966;13.632;2023-11-19T02:00:40;101085.84;;;16.29;55.60
31121;BME280;17770;45.966;13.632;2023-11-19T02:03:07;101076.50;;;16.24;55.66
31121;BME280;17770;45.966;13.632;2023-11-19T02:05:34;101077.53;;;16.00;56.27
31121;BME280;17770;45.966;13.632;2023-11-19T02:08:02;101084.72;;;15.93;57.08
31121;BME280;17770;45.966;13.632;2023-11-19T02:10:29;101077.88;;;15.91;56.55
31121;BME280;17770;45.966;13.632;2023-11-19T02:12:57;101055.44;;;15.88;56.75
31121;BME280;17770;45.966;13.632;2023-11-19T02:15:24;101053.72;;;15.87;56.94
31121;BME280;17770;45.966;13.632;2023-11-19T02:17:53;101051.19;;;15.86;57.08
31121;BME280;17770;45.966;13.632;2023-11-19T02:20:19;101053.00;;;15.84;56.90
31121;BME280;17770;45.966;13.632;2023-11-19T02:22:46;101049.50;;;15.85;57.10
31121;BME280;17770;45.966;13.632;2023-11-19T02:25:19;101052.13;;;15.85;57.06
31121;BME280;17770;45.966;13.632;2023-11-19T02:27:53;101054.78;;;15.83;57.25
31121;BME280;17770;45.966;13.632;2023-11-19T02:30:22;101056.53;;;15.83;57.26
31121;BME280;17770;45.966;13.632;2023-11-19T02:32:52;101049.56;;;15.83;56.94
31121;BME280;17770;45.966;13.632;2023-11-19T02:35:19;101035.78;;;15.81;57.24
31121;BME280;17770;45.966;13.632;2023-11-19T02:37:47;101034.06;;;15.80;56.94
31121;BME280;17770;45.966;13.632;2023-11-19T02:40:13;101028.88;;;15.80;56.95
31121;BME280;17770;45.966;13.632;2023-11-19T02:42:40;101028.88;;;15.80;56.73
31121;BME280;17770;45.966;13.632;2023-11-19T02:45:07;101015.88;;;15.80;56.63
31121;BME280;17770;45.966;13.632;2023-11-19T02:47:40;101019.44;;;15.78;56.67
31121;BME280;17770;45.966;13.632;2023-11-19T02:50:10;101002.16;;;15.77;57.02
31121;BME280;17770;45.966;13.632;2023-11-19T02:52:43;101004.75;;;15.77;56.67
31121;BME280;17770;45.966;13.632;2023-11-19T02:55:10;100999.56;;;15.77;57.01
31121;BME280;17770;45.966;13.632;2023-11-19T02:57:39;100990.06;;;15.76;56.71
31121;BME280;17770;45.966;13.632;2023-11-19T03:00:20;100994.38;;;15.77;56.75
31121;BME280;17770;45.966;13.632;2023-11-19T03:02:50;100991.78;;;15.75;56.95
31121;BME280;17770;45.966;13.632;2023-11-19T03:05:31;100988.38;;;15.75;57.33
31121;BME280;17770;45.966;13.632;2023-11-19T03:07:57;100978.84;;;15.74;56.83
31121;BME280;17770;45.966;13.632;2023-11-19T03:10:23;100976.25;;;15.74;57.22
31121;BME280;17770;45.966;13.632;2023-11-19T03:12:49;100978.84;;;15.74;57.07
31121;BME280;17770;45.966;13.632;2023-11-19T03:15:15;100983.31;;;15.72;57.26
31121;BME280;17770;45.966;13.632;2023-11-19T03:17:41;100979.78;;;15.73;57.11
31121;BME280;17770;45.966;13.632;2023-11-19T03:20:11;100981.53;;;15.72;57.24
31121;BME280;17770;45.966;13.632;2023-11-19T03:22:41;100980.72;;;15.70;56.73
31121;BME280;17770;45.966;13.632;2023-11-19T03:25:08;100982.44;;;15.71;56.94
31121;BME280;17770;45.966;13.632;2023-11-19T03:27:35;100972.94;;;15.70;57.24
31121;BME280;17770;45.966;13.632;2023-11-19T03:30:02;100965.13;;;15.70;57.26
31121;BME280;17770;45.966;13.632;2023-11-19T03:32:31;100953.06;;;15.69;56.72
31121;BME280;17770;45.966;13.632;2023-11-19T03:34:58;100946.16;;;15.68;57.17
31121;BME280;17770;45.966;13.632;2023-11-19T03:37:28;100966.13;;;15.68;56.73
31121;BME280;17770;45.966;13.632;2023-11-19T03:39:54;100976.53;;;15.68;56.99
31121;BME280;17770;45.966;13.632;2023-11-19T03:42:21;100969.63;;;15.67;57.32
31121;BME280;17770;45.966;13.632;2023-11-19T03:44:48;100975.72;;;15.65;56.69
31121;BME280;17770;45.966;13.632;2023-11-19T03:47:16;100975.78;;;15.64;56.80
31121;BME280;17770;45.966;13.632;2023-11-19T03:49:42;100969.81;;;15.62;56.91
31121;BME280;17770;45.966;13.632;2023-11-19T03:52:09;100973.19;;;15.64;57.31
31121;BME280;17770;45.966;13.632;2023-11-19T03:54:35;100979.31;;;15.63;56.96
31121;BME280;17770;45.966;13.632;2023-11-19T03:57:02;100972.34;;;15.63;56.59
31121;BME280;17770;45.966;13.632;2023-11-19T03:59:30;100972.41;;;15.62;57.14
31121;BME280;17770;45.966;13.632;2023-11-19T04:01:56;100978.53;;;15.61;56.69
31121;BME280;17770;45.966;13.632;2023-11-19T04:04:22;100963.78;;;15.61;56.64
31121;BME280;17770;45.966;13.632;2023-11-19T04:06:48;100961.19;;;15.61;57.11
31121;BME280;17770;45.966;13.632;2023-11-19T04:09:14;100955.19;;;15.59;56.98
31121;BME280;17770;45.966;13.632;2023-11-19T04:11:39;100969.03;;;15.60;56.73
31121;BME280;17770;45.966;13.632;2023-11-19T04:14:06;100975.97;;;15.59;57.14
31121;BME280;17770;45.966;13.632;2023-11-19T04:16:32;100968.19;;;15.59;57.03
31121;BME280;17770;45.966;13.632;2023-11-19T04:18:58;100965.38;;;15.64;56.94
31121;BME280;17770;45.966;13.632;2023-11-19T04:21:25;100955.91;;;15.63;56.39
31121;BME280;17770;45.966;13.632;2023-11-19T04:23:52;100962.97;;;15.59;57.12
31121;BME280;17770;45.966;13.632;2023-11-19T04:26:18;100969.13;;;15.57;57.13
31121;BME280;17770;45.966;13.632;2023-11-19T04:28:44;100960.59;;;15.55;57.19
31121;BME280;17770;45.966;13.632;2023-11-19T04:31:10;100957.00;;;15.57;57.17
31121;BME280;17770;45.966;13.632;2023-11-19T04:33:36;100962.25;;;15.56;56.61
31121;BME280;17770;45.966;13.632;2023-11-19T04:36:02;100963.47;;;15.89;55.95
31121;BME280;17770;45.966;13.632;2023-11-19T04:38:28;100952.75;;;15.97;55.90
31121;BME280;17770;45.966;13.632;2023-11-19T04:40:54;100954.25;;;16.02;55.22
31121;BME280;17770;45.966;13.632;2023-11-19T04:43:23;100955.03;;;16.04;55.71
31121;BME280;17770;45.966;13.632;2023-11-19T04:45:49;100963.75;;;16.03;55.04
31121;BME280;17770;45.966;13.632;2023-11-19T04:48:15;100962.97;;;16.01;55.31
31121;BME280;17770;45.966;13.632;2023-11-19T04:50:41;100961.13;;;16.03;54.95
31121;BME280;17770;45.966;13.632;2023-11-19T04:53:07;100942.25;;;16.00;55.31
31121;BME280;17770;45.966;13.632;2023-11-19T04:55:33;100928.31;;;16.01;55.12
31121;BME280;17770;45.966;13.632;2023-11-19T04:57:59;100930.97;;;15.99;54.92
31121;BME280;17770;45.966;13.632;2023-11-19T05:00:25;100919.66;;;16.00;54.97
31121;BME280;17770;45.966;13.632;2023-11-19T05:02:51;100913.66;;;15.98;54.83
31121;BME280;17770;45.966;13.632;2023-11-19T05:05:17;100909.31;;;15.99;54.92
31121;BME280;17770;45.966;13.632;2023-11-19T05:07:43;100917.13;;;15.99;55.15
31121;BME280;17770;45.966;13.632;2023-11-19T05:10:09;100923.31;;;15.96;55.10
31121;BME280;17770;45.966;13.632;2023-11-19T05:12:35;100930.53;;;15.90;55.64
31121;BME280;17770;45.966;13.632;2023-11-19T05:15:01;100915.63;;;15.93;55.40
31121;BME280;17770;45.966;13.632;2023-11-19T05:17:27;100920.56;;;15.99;54.98
31121;BME280;17770;45.966;13.632;2023-11-19T05:19:53;100911.13;;;15.97;54.87
31121;BME280;17770;45.966;13.632;2023-11-19T05:22:19;100924.06;;;15.98;55.18
31121;BME280;17770;45.966;13.632;2023-11-19T05:24:47;100912.97;;;15.95;55.51
31121;BME280;17770;45.966;13.632;2023-11-19T05:27:14;100897.28;;;15.96;55.18
31121;BME280;17770;45.966;13.632;2023-11-19T05:29:40;100908.53;;;15.97;55.06
31121;BME280;17770;45.966;13.632;2023-11-19T05:32:07;100896.50;;;15.94;55.55
31121;BME280;17770;45.966;13.632;2023-11-19T05:34:33;100904.31;;;15.94;55.47
31121;BME280;17770;45.966;13.632;2023-11-19T05:36:59;100910.38;;;15.95;54.97
31121;BME280;17770;45.966;13.632;2023-11-19T05:39:25;100914.78;;;15.93;54.84
31121;BME280;17770;45.966;13.632;2023-11-19T05:41:51;100902.63;;;15.93;55.14
31121;BME280;17770;45.966;13.632;2023-11-19T05:44:17;100899.91;;;15.96;55.14
31121;BME280;17770;45.966;13.632;2023-11-19T05:46:45;100892.91;;;15.97;55.02
31121;BME280;17770;45.966;13.632;2023-11-19T05:49:11;100876.56;;;15.95;55.16
31121;BME280;17770;45.966;13.632;2023-11-19T05:51:37;100896.44;;;15.96;54.77
31121;BME280;17770;45.966;13.632;2023-11-19T05:54:06;100909.50;;;15.94;55.02
31121;BME280;17770;45.966;13.632;2023-11-19T05:56:33;100926.03;;;15.73;55.54
31121;BME280;17770;45.966;13.632;2023-11-19T05:59:02;100912.28;;;15.49;56.26
31121;BME280;17770;45.966;13.632;2023-11-19T06:01:41;100908.06;;;15.87;55.17
31121;BME280;17770;45.966;13.632;2023-11-19T06:04:07;100915.81;;;15.89;55.27
31121;BME280;17770;45.966;13.632;2023-11-19T06:06:33;100918.34;;;15.90;55.39
31121;BME280;17770;45.966;13.632;2023-11-19T06:09:00;100905.28;;;15.92;54.96
31121;BME280;17770;45.966;13.632;2023-11-19T06:11:27;100902.63;;;15.93;55.28
31121;BME280;17770;45.966;13.632;2023-11-19T06:13:53;100920.06;;;15.91;55.08
31121;BME280;17770;45.966;13.632;2023-11-19T06:16:19;100927.06;;;15.89;55.32
31121;BME280;17770;45.966;13.632;2023-11-19T06:18:46;100940.06;;;15.89;54.72
31121;BME280;17770;45.966;13.632;2023-11-19T06:21:12;100933.94;;;15.90;54.72
31121;BME280;17770;45.966;13.632;2023-11-19T06:23:39;100930.47;;;15.91;55.35
31121;BME280;17770;45.966;13.632;2023-11-19T06:26:05;100915.69;;;15.92;55.25
31121;BME280;17770;45.966;13.632;2023-11-19T06:28:31;100907.88;;;15.92;55.29
31121;BME280;17770;45.966;13.632;2023-11-19T06:30:57;100910.53;;;15.90;55.13
31121;BME280;17770;45.966;13.632;2023-11-19T06:33:24;100896.81;;;15.46;56.44
31121;BME280;17770;45.966;13.632;2023-11-19T06:35:50;100895.28;;;15.41;56.03
31121;BME280;17770;45.966;13.632;2023-11-19T06:38:16;100899.97;;;15.75;55.85
31121;BME280;17770;45.966;13.632;2023-11-19T06:40:42;100895.41;;;15.80;55.28
31121;BME280;17770;45.966;13.632;2023-11-19T06:43:08;100902.22;;;15.82;55.54
31121;BME280;17770;45.966;13.632;2023-11-19T06:45:34;100906.47;;;15.85;55.13
31121;BME280;17770;45.966;13.632;2023-11-19T06:48:06;100916.94;;;15.83;54.97
31121;BME280;17770;45.966;13.632;2023-11-19T06:50:33;100909.88;;;15.85;55.54
31121;BME280;17770;45.966;13.632;2023-11-19T06:52:59;100915.09;;;15.85;55.50
31121;BME280;17770;45.966;13.632;2023-11-19T06:55:26;100903.88;;;15.85;55.22
31121;BME280;17770;45.966;13.632;2023-11-19T06:57:52;100908.13;;;15.86;54.98
31121;BME280;17770;45.966;13.632;2023-11-19T07:00:18;100918.63;;;15.84;54.72
31121;BME280;17770;45.966;13.632;2023-11-19T07:02:44;100922.13;;;15.83;54.78
31121;BME280;17770;45.966;13.632;2023-11-19T07:05:10;100925.63;;;15.82;54.94
31121;BME280;17770;45.966;13.632;2023-11-19T07:07:37;100928.94;;;15.86;54.71
31121;BME280;17770;45.966;13.632;2023-11-19T07:10:05;100926.41;;;15.84;54.98
31121;BME280;17770;45.966;13.632;2023-11-19T07:12:36;100923.81;;;15.84;54.68
31121;BME280;17770;45.966;13.632;2023-11-19T07:15:02;100925.56;;;15.84;54.63
31121;BME280;17770;45.966;13.632;2023-11-19T07:17:30;100918.69;;;15.83;55.14
31121;BME280;17770;45.966;13.632;2023-11-19T07:19:56;100900.41;;;15.84;55.12
31121;BME280;17770;45.966;13.632;2023-11-19T07:22:26;100916.22;;;15.80;54.62
31121;BME280;17770;45.966;13.632;2023-11-19T07:24:56;100922.38;;;15.77;54.85
31121;BME280;17770;45.966;13.632;2023-11-19T07:27:23;100906.13;;;15.72;55.58
31121;BME280;17770;45.966;13.632;2023-11-19T07:29:50;100911.16;;;15.77;54.81
31121;BME280;17770;45.966;13.632;2023-11-19T07:32:16;100904.16;;;15.77;55.19
31121;BME280;17770;45.966;13.632;2023-11-19T07:34:42;100903.34;;;15.77;55.29
31121;BME280;17770;45.966;13.632;2023-11-19T07:37:08;100900.59;;;15.80;55.00
31121;BME280;17770;45.966;13.632;2023-11-19T07:39:34;100904.88;;;15.81;54.75
31121;BME280;17770;45.966;13.632;2023-11-19T07:42:01;100901.41;;;15.82;54.98
31121;BME280;17770;45.966;13.632;2023-11-19T07:44:27;100895.41;;;15.80;54.90
31121;BME280;17770;45.966;13.632;2023-11-19T07:46:53;100905.81;;;15.80;55.24
31121;BME280;17770;45.966;13.632;2023-11-19T07:49:19;100915.34;;;15.79;54.64
31121;BME280;17770;45.966;13.632;2023-11-19T07:51:45;100913.53;;;15.81;55.28
31121;BME280;17770;45.966;13.632;2023-11-19T07:54:11;100911.84;;;15.80;54.82
31121;BME280;17770;45.966;13.632;2023-11-19T07:56:37;100930.00;;;15.82;54.84
31121;BME280;17770;45.966;13.632;2023-11-19T07:59:03;100930.16;;;15.77;55.19
31121;BME280;17770;45.966;13.632;2023-11-19T08:01:29;100955.16;;;15.81;54.91
31121;BME280;17770;45.966;13.632;2023-11-19T08:03:55;100961.22;;;15.82;55.15
31121;BME280;17770;45.966;13.632;2023-11-19T08:06:20;100956.84;;;15.82;54.78
31121;BME280;17770;45.966;13.632;2023-11-19T08:08:47;100946.94;;;15.70;55.32
31121;BME280;17770;45.966;13.632;2023-11-19T08:11:14;100937.03;;;15.80;55.13
31121;BME280;17770;45.966;13.632;2023-11-19T08:13:40;100931.03;;;15.78;55.07
31121;BME280;17770;45.966;13.632;2023-11-19T08:16:07;100925.81;;;15.78;54.90
31121;BME280;17770;45.966;13.632;2023-11-19T08:18:33;100936.88;;;15.83;55.17
31121;BME280;17770;45.966;13.632;2023-11-19T08:20:59;100950.72;;;15.41;56.07
31121;BME280;17770;45.966;13.632;2023-11-19T08:23:26;100941.56;;;15.31;56.09
31121;BME280;17770;45.966;13.632;2023-11-19T08:25:54;100942.63;;;15.26;56.33
31121;BME280;17770;45.966;13.632;2023-11-19T08:28:20;100947.84;;;15.26;56.70
31121;BME280;17770;45.966;13.632;2023-11-19T08:30:46;100942.63;;;15.26;56.42
31121;BME280;17770;45.966;13.632;2023-11-19T08:33:12;100928.84;;;15.24;56.56
31121;BME280;17770;45.966;13.632;2023-11-19T08:35:37;100938.44;;;15.23;56.69
31121;BME280;17770;45.966;13.632;2023-11-19T08:38:03;100942.72;;;15.24;56.80
31121;BME280;17770;45.966;13.632;2023-11-19T08:40:29;100945.69;;;15.58;55.67
31121;BME280;17770;45.966;13.632;2023-11-19T08:42:55;100943.59;;;15.46;56.17
31121;BME280;17770;45.966;13.632;2023-11-19T08:45:21;100943.38;;;15.73;54.88
31121;BME280;17770;45.966;13.632;2023-11-19T08:47:48;100947.59;;;15.75;55.15
31121;BME280;17770;45.966;13.632;2023-11-19T08:50:14;100946.63;;;15.78;54.98
31121;BME280;17770;45.966;13.632;2023-11-19T08:52:40;100940.44;;;15.80;55.07
31121;BME280;17770;45.966;13.632;2023-11-19T08:55:06;100930.03;;;15.80;54.92
31121;BME280;17770;45.966;13.632;2023-11-19T08:57:32;100912.69;;;15.81;54.86
31121;BME280;17770;45.966;13.632;2023-11-19T09:00:01;100928.28;;;15.81;54.89
31121;BME280;17770;45.966;13.632;2023-11-19T09:02:26;100929.22;;;15.80;54.92
31121;BME280;17770;45.966;13.632;2023-11-19T09:04:52;100926.69;;;15.78;54.61
31121;BME280;17770;45.966;13.632;2023-11-19T09:07:18;100927.41;;;15.82;54.85
31121;BME280;17770;45.966;13.632;2023-11-19T09:09:44;100928.28;;;15.81;54.83
31121;BME280;17770;45.966;13.632;2023-11-19T09:12:10;100918.88;;;15.78;55.15
31121;BME280;17770;45.966;13.632;2023-11-19T09:14:36;100914.97;;;15.68;55.46
31121;BME280;17770;45.966;13.632;2023-11-19T09:17:02;100905.78;;;15.38;55.92
31121;BME280;17770;45.966;13.632;2023-11-19T09:19:27;100906.75;;;15.35;56.23
31121;BME280;17770;45.966;13.632;2023-11-19T09:21:53;100905.91;;;15.35;56.36
31121;BME280;17770;45.966;13.632;2023-11-19T09:24:19;100915.66;;;15.51;57.44
31121;BME280;17770;45.966;13.632;2023-11-19T09:26:45;100917.78;;;15.42;56.13
31121;BME280;17770;45.966;13.632;2023-11-19T09:29:11;100925.69;;;15.39;56.59
31121;BME280;17770;45.966;13.632;2023-11-19T09:31:37;100931.78;;;15.38;56.65
31121;BME280;17770;45.966;13.632;2023-11-19T09:34:03;100924.09;;;15.35;56.66
31121;BME280;17770;45.966;13.632;2023-11-19T09:36:29;100925.72;;;15.37;56.63
31121;BME280;17770;45.966;13.632;2023-11-19T09:38:55;100923.09;;;15.39;56.46
31121;BME280;17770;45.966;13.632;2023-11-19T09:41:21;100917.00;;;15.40;56.43
31121;BME280;17770;45.966;13.632;2023-11-19T09:43:47;100916.16;;;15.39;56.59
31121;BME280;17770;45.966;13.632;2023-11-19T09:46:13;100912.69;;;15.39;56.01
31121;BME280;17770;45.966;13.632;2023-11-19T09:48:41;100910.09;;;15.39;56.65
31121;BME280;17770;45.966;13.632;2023-11-19T09:51:08;100911.81;;;15.40;56.24
31121;BME280;17770;45.966;13.632;2023-11-19T09:53:37;100904.94;;;15.37;56.44
31121;BME280;17770;45.966;13.632;2023-11-19T09:56:04;100894.00;;;15.29;56.78
31121;BME280;17770;45.966;13.632;2023-11-19T09:58:30;100890.59;;;15.27;56.52
31121;BME280;17770;45.966;13.632;2023-11-19T10:00:57;100879.41;;;15.27;56.74
31121;BME280;17770;45.966;13.632;2023-11-19T10:03:34;100875.88;;;15.28;56.48
31121;BME280;17770;45.966;13.632;2023-11-19T10:06:03;100863.75;;;15.28;56.68
31121;BME280;17770;45.966;13.632;2023-11-19T10:08:30;100848.22;;;15.27;57.01
31121;BME280;17770;45.966;13.632;2023-11-19T10:10:56;100850.81;;;15.27;57.04
31121;BME280;17770;45.966;13.632;2023-11-19T10:13:28;100873.34;;;15.26;56.85
31121;BME280;17770;45.966;13.632;2023-11-19T10:15:54;100884.53;;;15.28;56.57
31121;BME280;17770;45.966;13.632;2023-11-19T10:18:25;100866.22;;;15.31;56.42
31121;BME280;17770;45.966;13.632;2023-11-19T10:20:51;100852.44;;;15.29;56.95
31121;BME280;17770;45.966;13.632;2023-11-19T10:23:16;100865.41;;;15.29;56.69
31121;BME280;17770;45.966;13.632;2023-11-19T10:25:42;100874.06;;;15.30;56.95
31121;BME280;17770;45.966;13.632;2023-11-19T10:28:08;100873.22;;;15.29;56.50
31121;BME280;17770;45.966;13.632;2023-11-19T10:30:34;100869.66;;;15.32;56.54
31121;BME280;17770;45.966;13.632;2023-11-19T10:33:12;100852.34;;;15.31;56.82
31121;BME280;17770;45.966;13.632;2023-11-19T10:35:58;100835.09;;;15.30;56.73
31121;BME280;17770;45.966;13.632;2023-11-19T10:38:25;100828.09;;;15.32;56.41
31121;BME280;17770;45.966;13.632;2023-11-19T10:40:51;100829.81;;;15.31;56.82
31121;BME280;17770;45.966;13.632;2023-11-19T10:43:18;100839.38;;;15.31;57.05
31121;BME280;17770;45.966;13.632;2023-11-19T10:45:44;100831.56;;;15.31;56.70
31121;BME280;17770;45.966;13.632;2023-11-19T10:48:10;100843.59;;;15.33;56.59
31121;BME280;17770;45.966;13.632;2023-11-19T10:50:39;100842.75;;;15.33;57.01
31121;BME280;17770;45.966;13.632;2023-11-19T10:53:06;100837.56;;;15.33;56.95
31121;BME280;17770;45.966;13.632;2023-11-19T10:55:33;100828.00;;;15.33;56.50
31121;BME280;17770;45.966;13.632;2023-11-19T10:58:01;100817.69;;;15.32;56.93
31121;BME280;17770;45.966;13.632;2023-11-19T11:00:28;100813.31;;;15.32;56.59
31121;BME280;17770;45.966;13.632;2023-11-19T11:02:56;100806.31;;;15.34;56.60
31121;BME280;17770;45.966;13.632;2023-11-19T11:05:25;100806.38;;;15.33;56.66
31121;BME280;17770;45.966;13.632;2023-11-19T11:07:52;100801.97;;;15.35;56.61
31121;BME280;17770;45.966;13.632;2023-11-19T11:10:18;100797.56;;;15.37;56.69
31121;BME280;17770;45.966;13.632;2023-11-19T11:12:48;100789.69;;;15.38;56.57
31121;BME280;17770;45.966;13.632;2023-11-19T11:15:15;100785.34;;;15.39;56.54
31121;BME280;17770;45.966;13.632;2023-11-19T11:17:43;100790.53;;;15.39;56.76
31121;BME280;17770;45.966;13.632;2023-11-19T11:20:10;100794.84;;;15.40;56.68
31121;BME280;17770;45.966;13.632;2023-11-19T11:23:11;100793.03;;;15.42;56.57
31121;BME280;17770;45.966;13.632;2023-11-19T11:28:03;100782.56;;;15.43;56.52
31121;BME280;17770;45.966;13.632;2023-11-19T11:36:00;100781.53;;;15.47;56.93
31121;BME280;17770;45.966;13.632;2023-11-19T11:38:31;100770.16;;;15.50;57.51
31121;BME280;17770;45.966;13.632;2023-11-19T11:43:51;100780.34;;;15.54;57.19
31121;BME280;17770;45.966;13.632;2023-11-19T11:49:02;100779.50;;;15.54;56.76
31121;BME280;17770;45.966;13.632;2023-11-19T11:57:08;100773.41;;;15.55;56.93
31121;BME280;17770;45.966;13.632;2023-11-19T12:02:04;100762.94;;;15.56;56.83
31121;BME280;17770;45.966;13.632;2023-11-19T12:04:30;100767.16;;;15.59;56.87
31121;BME280;17770;45.966;13.632;2023-11-19T12:07:06;100769.75;;;15.59;57.09
31121;BME280;17770;45.966;13.632;2023-11-19T12:09:32;100767.06;;;15.60;57.11
31121;BME280;17770;45.966;13.632;2023-11-19T12:19:59;100765.97;;;15.66;56.93
31121;BME280;17770;45.966;13.632;2023-11-19T12:22:25;100754.50;;;15.70;56.87
31121;BME280;17770;45.966;13.632;2023-11-19T12:24:54;100747.50;;;15.72;56.43
31121;BME280;17770;45.966;13.632;2023-11-19T12:27:20;100744.91;;;15.72;56.43
31121;BME280;17770;45.966;13.632;2023-11-19T12:29:49;100746.47;;;15.76;56.98
31121;BME280;17770;45.966;13.632;2023-11-19T12:32:15;100748.00;;;15.80;56.34
31121;BME280;17770;45.966;13.632;2023-11-19T12:34:41;100754.84;;;15.83;56.58
31121;BME280;17770;45.966;13.632;2023-11-19T12:37:07;100753.09;;;15.83;56.77
31121;BME280;17770;45.966;13.632;2023-11-19T12:39:35;100752.16;;;15.84;56.70
31121;BME280;17770;45.966;13.632;2023-11-19T12:42:01;100746.03;;;15.85;56.64
31121;BME280;17770;45.966;13.632;2023-11-19T12:44:27;100744.22;;;15.87;56.07
31121;BME280;17770;45.966;13.632;2023-11-19T12:47:03;100738.16;;;15.87;56.59
31121;BME280;17770;45.966;13.632;2023-11-19T12:49:29;100739.00;;;15.87;55.93
31121;BME280;17770;45.966;13.632;2023-11-19T12:51:55;100739.22;;;15.83;56.26
31121;BME280;17770;45.966;13.632;2023-11-19T12:54:36;100727.06;;;15.83;56.32
31121;BME280;17770;45.966;13.632;2023-11-19T12:57:02;100728.59;;;15.87;56.23
31121;BME280;17770;45.966;13.632;2023-11-19T12:59:28;100728.59;;;15.87;56.65
31121;BME280;17770;45.966;13.632;2023-11-19T13:01:55;100737.34;;;15.86;56.36
31121;BME280;17770;45.966;13.632;2023-11-19T13:04:21;100740.72;;;15.88;56.45
31121;BME280;17770;45.966;13.632;2023-11-19T13:06:47;100742.53;;;15.86;56.94
31121;BME280;17770;45.966;13.632;2023-11-19T13:11:49;100739.00;;;15.87;56.49